Terminal Aerodrome Forecast
Issued by NWS

Home | Current Version | Previous Version | Text Only | Print | Product List | Glossary On
Versions: 1 2 3 4 5 6 7 8 9 10 11 12 13
059
FTUS45 KABQ 111720
TAFTCC
TAF
KTCC 111720Z 1118/1218 VRB06KT P6SM SKC
     FM111900 21007KT P6SM FEW250
     FM120500 01008KT P6SM FEW250
     FM121600 14006KT P6SM SKC=

USA.gov is the U.S. government's official web portal to all federal, state and local government web resources and services.